Time;durP1;ratioP1;P1;durP2;ratioP2;P2;SDS_P1;SDS_P2;PMS_P1;PMS_P2;Temp;Humidity;BMP_temperature;BMP_pressure;BME280_temperature;BME280_humidity;BME280_pressure;Samples;Min_cycle;Max_cycle;Signal;HPM_P1;HPM_P2
2022/11/04 00:01:14;;;;;;;7.85;5.57;;;;;;;0.73;82.23;99618.91;5076655;28;20230;-66
2022/11/04 00:03:39;;;;;;;8.32;6.40;;;;;;;0.68;82.42;99616.28;5084283;28;20020;-64
2022/11/04 00:06:05;;;;;;;10.70;6.32;;;;;;;0.55;83.67;99611.78;5074455;28;20037;-64
2022/11/04 00:08:31;;;;;;;7.40;6.20;;;;;;;0.59;83.81;99600.81;5079893;28;20247;-65
2022/11/04 00:13:43;;;;;;;7.40;6.00;;;;;;;0.76;83.54;99621.50;5072265;28;20091;-66
2022/11/04 00:18:54;;;;;;;7.93;6.55;;;;;;;0.70;83.96;99608.66;5069349;28;20032;-66
2022/11/04 00:29:33;;;;;;;12.75;9.23;;;;;;;0.72;83.46;99616.34;5083842;28;20028;-64
2022/11/04 00:34:43;;;;;;;12.68;10.20;;;;;;;0.79;83.49;99621.53;5082676;28;20032;-65
2022/11/04 00:37:09;;;;;;;14.10;10.40;;;;;;;0.86;83.40;99620.81;5070471;28;20039;-65
2022/11/04 00:39:34;;;;;;;13.32;10.02;;;;;;;0.73;82.51;99612.94;5072948;28;20033;-65
2022/11/04 00:42:00;;;;;;;17.52;11.45;;;;;;;0.77;82.33;99610.47;5063865;28;20094;-65
2022/11/04 00:44:26;;;;;;;13.30;9.27;;;;;;;0.76;82.54;99606.22;5064253;28;20048;-64
2022/11/04 00:46:51;;;;;;;15.23;11.23;;;;;;;0.71;82.72;99610.34;5083161;28;20024;-65
2022/11/04 00:49:17;;;;;;;14.75;9.90;;;;;;;0.68;83.18;99610.31;5069324;28;20036;-64
2022/11/04 00:51:42;;;;;;;13.57;10.23;;;;;;;0.71;82.44;99614.59;5073462;28;20567;-64
2022/11/04 00:54:08;;;;;;;14.70;10.20;;;;;;;0.75;82.96;99609.56;5078650;28;20090;-64
2022/11/04 00:56:37;;;;;;;13.15;9.55;;;;;;;0.64;82.24;99593.25;5064066;28;20317;-65
2022/11/04 00:59:03;;;;;;;14.50;9.48;;;;;;;0.77;82.22;99605.38;5083461;28;20048;-65
2022/11/04 01:01:28;;;;;;;12.75;9.13;;;;;;;0.71;82.20;99610.34;5065659;28;20029;-65
2022/11/04 01:03:55;;;;;;;14.05;10.02;;;;;;;0.73;82.44;99608.72;5063449;28;20078;-65
2022/11/04 01:06:22;;;;;;;13.73;10.00;;;;;;;0.55;82.67;99582.91;5063532;28;20112;-64
2022/11/04 01:08:53;;;;;;;14.02;9.43;;;;;;;0.73;82.96;99607.81;5065524;28;20033;-65
2022/11/04 01:11:19;;;;;;;12.90;9.23;;;;;;;0.78;82.94;99606.22;5083141;28;20040;-65
2022/11/04 01:13:44;;;;;;;12.95;9.25;;;;;;;0.81;82.50;99601.19;5065194;28;20032;-65
2022/11/04 01:16:11;;;;;;;11.73;9.52;;;;;;;0.84;82.39;99604.66;5076706;28;20033;-65
2022/11/04 01:18:38;;;;;;;12.38;8.73;;;;;;;0.76;82.05;99607.91;5083586;28;20028;-65
2022/11/04 01:21:06;;;;;;;13.27;9.13;;;;;;;0.80;82.46;99594.38;5079123;28;20025;-65
2022/11/04 01:23:34;;;;;;;12.80;9.48;;;;;;;0.72;82.37;99601.88;5074535;28;20435;-66
2022/11/04 01:25:59;;;;;;;12.90;9.32;;;;;;;0.71;81.85;99587.41;5065980;28;20024;-65
2022/11/04 01:28:25;;;;;;;11.98;8.68;;;;;;;0.85;82.26;99602.94;5071623;28;20048;-65
2022/11/04 01:30:50;;;;;;;13.13;9.13;;;;;;;0.80;81.91;99610.53;5072819;28;20039;-66
2022/11/04 01:33:16;;;;;;;14.32;8.60;;;;;;;0.79;82.05;99608.81;5068826;28;20040;-66
2022/11/04 01:35:42;;;;;;;11.57;8.43;;;;;;;0.76;81.66;99598.56;5081220;28;20032;-65
2022/11/04 01:38:07;;;;;;;11.05;8.27;;;;;;;0.84;82.35;99607.19;5062972;28;20104;-65
2022/11/04 01:40:38;;;;;;;13.80;9.40;;;;;;;0.86;82.27;99612.31;5061586;28;20032;-65
2022/11/04 01:43:14;;;;;;;15.32;8.93;;;;;;;0.86;82.54;99609.78;5070509;28;20063;-64
2022/11/04 01:45:44;;;;;;;13.20;9.05;;;;;;;0.70;82.37;99606.13;5062975;28;20029;-65
2022/11/04 01:48:32;;;;;;;11.13;8.07;;;;;;;0.77;82.51;99602.84;5096316;28;20305;-66
2022/11/04 01:50:59;;;;;;;13.05;8.35;;;;;;;0.85;81.49;99616.53;5082703;28;20088;-65
2022/11/04 01:53:32;;;;;;;9.40;7.93;;;;;;;0.75;81.94;99594.28;5081873;28;20039;-64
2022/11/04 01:56:10;;;;;;;10.05;7.63;;;;;;;0.71;81.09;99591.66;5063225;28;20330;-64
2022/11/04 01:58:48;;;;;;;10.90;8.13;;;;;;;0.77;81.25;99594.31;5079378;28;20025;-64
2022/11/04 02:01:14;;;;;;;10.32;7.80;;;;;;;0.80;81.25;99602.88;5066902;28;20242;-65
2022/11/04 02:03:46;;;;;;;14.32;8.40;;;;;;;0.79;81.11;99607.94;5062548;28;20092;-65
2022/11/04 02:06:12;;;;;;;12.55;7.93;;;;;;;0.81;81.47;99608.81;5062812;28;20025;-64
2022/11/04 02:08:39;;;;;;;12.77;8.27;;;;;;;0.80;81.62;99609.69;5076072;28;20021;-64
2022/11/04 02:11:05;;;;;;;11.77;8.32;;;;;;;0.81;81.93;99612.25;5062727;28;20029;-64
2022/11/04 02:13:34;;;;;;;10.27;7.22;;;;;;;0.78;81.46;99596.88;5078442;28;20024;-65
2022/11/04 02:16:12;;;;;;;10.38;7.35;;;;;;;0.78;81.81;99591.78;5071388;28;20033;-64
2022/11/04 02:18:43;;;;;;;12.55;7.53;;;;;;;0.83;81.58;99605.47;5074683;28;20317;-65
2022/11/04 02:21:12;;;;;;;12.82;7.60;;;;;;;0.80;81.64;99612.22;5071528;28;20028;-65
2022/11/04 02:24:07;;;;;;;13.75;7.03;;;;;;;0.81;81.54;99606.28;5070307;28;20021;-65
2022/11/04 02:27:06;;;;;;;11.15;6.57;;;;;;;0.56;81.77;99584.63;5063264;28;20087;-65
2022/11/04 02:29:49;;;;;;;9.23;6.70;;;;;;;0.64;81.86;99606.00;5073383;28;20198;-65
2022/11/04 02:32:38;;;;;;;12.43;7.18;;;;;;;0.68;81.78;99595.00;5061706;28;20040;-65
2022/11/04 02:35:18;;;;;;;9.10;6.47;;;;;;;0.69;80.89;99591.66;5062529;28;20032;-65
2022/11/04 02:38:22;;;;;;;8.88;6.15;;;;;;;0.80;80.49;99607.13;5079770;28;20037;-65
2022/11/04 02:40:56;;;;;;;11.50;6.63;;;;;;;0.50;79.89;99559.91;5086429;28;20028;-66
2022/11/04 02:43:27;;;;;;;9.30;6.50;;;;;;;0.79;79.59;99601.16;5072077;28;20288;-66
2022/11/04 02:46:10;;;;;;;9.43;7.15;;;;;;;0.70;80.14;99585.72;5075164;28;20390;-65
2022/11/04 02:48:45;;;;;;;8.48;5.90;;;;;;;0.80;79.70;99613.06;5078695;28;20032;-65
2022/11/04 02:51:18;;;;;;;7.90;6.10;;;;;;;0.79;79.74;99605.41;5070553;28;20039;-65
2022/11/04 02:54:01;;;;;;;6.90;5.72;;;;;;;0.71;80.63;99589.13;5085912;28;20025;-65
2022/11/04 02:56:29;;;;;;;8.75;6.03;;;;;;;0.84;80.46;99612.28;5086059;28;20054;-66
2022/11/04 02:58:59;;;;;;;8.63;6.18;;;;;;;0.72;80.42;99613.78;5067197;28;20025;-66
2022/11/04 03:01:31;;;;;;;6.95;5.30;;;;;;;0.71;79.75;99610.34;5080222;28;20252;-66
2022/11/04 03:04:07;;;;;;;7.68;5.88;;;;;;;0.59;80.11;99590.63;5085498;28;20335;-66
2022/11/04 03:06:35;;;;;;;6.40;5.10;;;;;;;0.65;79.92;99589.88;5078754;28;20075;-65
2022/11/04 03:09:02;;;;;;;8.70;6.00;;;;;;;0.61;79.80;99609.34;5068337;28;20033;-65
2022/11/04 03:11:30;;;;;;;7.72;6.35;;;;;;;0.69;80.10;99606.94;5086004;28;20029;-65
2022/11/04 03:14:06;;;;;;;6.53;5.32;;;;;;;0.66;80.38;99597.53;5067059;28;20083;-65
2022/11/04 03:16:44;;;;;;;8.15;5.25;;;;;;;0.67;79.13;99583.09;5066516;28;20051;-64
2022/11/04 03:20:08;;;;;;;7.18;5.53;;;;;;;0.71;79.40;99605.25;5085681;28;20024;-64
2022/11/04 03:22:35;;;;;;;7.47;5.15;;;;;;;0.62;79.74;99582.19;5051807;28;20080;-64
2022/11/04 03:25:04;;;;;;;7.05;6.13;;;;;;;0.50;79.60;99585.38;5074591;28;20309;-64
2022/11/04 03:27:45;;;;;;;7.70;6.05;;;;;;;0.61;79.39;99606.78;5066862;28;20051;-64
2022/11/04 03:30:22;;;;;;;8.70;5.93;;;;;;;0.52;78.56;99606.63;5070633;28;20147;-65
2022/11/04 03:33:03;;;;;;;7.20;5.93;;;;;;;0.58;79.22;99604.19;5083937;28;20344;-64
2022/11/04 03:35:29;;;;;;;8.77;6.67;;;;;;;0.44;79.71;99606.50;5085518;28;20047;-65
2022/11/04 03:37:56;;;;;;;7.28;6.20;;;;;;;0.42;79.69;99586.94;5085371;28;20040;-64
2022/11/04 03:40:22;;;;;;;11.18;5.93;;;;;;;0.50;78.60;99598.13;5085182;28;20093;-64
2022/11/04 03:42:56;;;;;;;8.07;5.75;;;;;;;0.49;79.41;99594.69;5084298;28;20186;-64
2022/11/04 03:45:22;;;;;;;7.82;6.05;;;;;;;0.58;78.97;99608.44;5085223;28;20031;-64
2022/11/04 03:47:49;;;;;;;8.00;5.63;;;;;;;0.51;78.78;99599.81;5084447;28;20024;-65
2022/11/04 03:50:29;;;;;;;7.82;5.85;;;;;;;0.47;78.99;99596.38;5064327;28;20037;-64
2022/11/04 03:52:55;;;;;;;8.15;6.13;;;;;;;0.58;78.73;99610.97;5083034;28;20025;-65
2022/11/04 03:55:38;;;;;;;7.28;5.10;;;;;;;0.56;79.09;99616.06;5071444;28;20031;-65
2022/11/04 03:58:26;;;;;;;6.72;4.88;;;;;;;0.55;77.94;99608.38;5072133;28;20024;-64
2022/11/04 04:01:05;;;;;;;5.43;4.75;;;;;;;0.43;79.18;99586.06;5069070;28;20108;-63
2022/11/04 04:03:39;;;;;;;7.47;5.45;;;;;;;0.40;79.85;99592.00;5071201;28;20020;-64
2022/11/04 04:06:13;;;;;;;6.78;4.88;;;;;;;0.58;79.51;99605.88;5067873;28;20353;-63
2022/11/04 04:08:56;;;;;;;7.68;5.43;;;;;;;0.58;79.81;99603.34;5077252;28;20085;-63
2022/11/04 04:11:46;;;;;;;5.93;4.53;;;;;;;0.57;78.38;99612.69;5063448;28;20339;-65
2022/11/04 04:14:38;;;;;;;5.50;5.00;;;;;;;0.59;80.14;99611.00;5064786;28;20047;-63
2022/11/04 04:17:06;;;;;;;;;;;;;;;0.56;79.49;99603.31;5084360;28;20027;-65
2022/11/04 04:19:33;;;;;;;5.22;4.18;;;;;;;0.56;78.72;99612.66;5084375;28;19908;-64
2022/11/04 04:22:05;;;;;;;8.20;4.57;;;;;;;0.47;77.63;99605.69;5074095;28;20028;-64
2022/11/04 04:27:31;;;;;;;8.10;5.03;;;;;;;0.48;77.04;99609.97;5066114;28;20032;-67
2022/11/04 04:30:00;;;;;;;5.97;4.35;;;;;;;0.47;77.78;99598.91;5070748;28;20056;-64
2022/11/04 04:32:28;;;;;;;6.65;5.07;;;;;;;0.62;77.98;99617.84;5064699;28;20047;-64
2022/11/04 04:35:40;;;;;;;7.55;4.50;;;;;;;0.59;77.76;99616.09;5081790;28;20095;-65
2022/11/04 04:37:41;;;;;;;7.75;5.00;;;;;;;0.63;77.77;99617.03;5073028;28;20048;-64
2022/11/04 04:45:42;;;;;;;6.95;5.28;;;;;;;0.32;79.94;99594.38;5071223;28;20029;-65
2022/11/04 04:48:10;;;;;;;8.95;5.70;;;;;;;0.40;79.34;99599.66;5075755;28;20044;-65
2022/11/04 04:50:41;;;;;;;7.85;5.70;;;;;;;0.28;80.49;99623.16;5077741;28;20040;-63
2022/11/04 04:53:06;;;;;;;8.40;5.60;;;;;;;0.16;80.10;99630.59;5062986;28;20292;-63
2022/11/04 04:55:32;;;;;;;8.18;5.05;;;;;;;0.33;80.82;99625.84;5077907;28;20044;-64
2022/11/04 04:57:58;;;;;;;8.73;5.55;;;;;;;0.34;79.86;99620.75;5073945;28;20025;-64
2022/11/04 05:00:25;;;;;;;8.38;5.80;;;;;;;0.32;80.46;99626.66;5065228;28;20036;-64
2022/11/04 05:02:50;;;;;;;8.35;5.95;;;;;;;0.45;80.57;99632.84;5062999;28;20052;-65
2022/11/04 05:05:16;;;;;;;8.68;6.32;;;;;;;0.44;80.41;99631.09;5083542;28;20033;-65
2022/11/04 05:07:42;;;;;;;8.95;6.13;;;;;;;0.44;80.92;99632.00;5068054;28;20029;-65
2022/11/04 05:10:10;;;;;;;6.75;5.05;;;;;;;0.41;81.65;99636.16;5073246;28;20319;-65
2022/11/04 05:15:21;;;;;;;8.70;6.25;;;;;;;0.37;81.06;99630.16;5067837;28;20106;-64
2022/11/04 05:17:47;;;;;;;6.07;5.20;;;;;;;0.50;81.47;99627.00;5083441;28;20033;-64
2022/11/04 05:20:13;;;;;;;7.95;5.53;;;;;;;0.46;80.23;99627.75;5083484;28;20020;-64
2022/11/04 05:22:39;;;;;;;8.00;5.22;;;;;;;0.59;80.76;99638.19;5077988;28;20036;-64
2022/11/04 05:25:05;;;;;;;8.23;5.50;;;;;;;0.63;80.78;99638.25;5063231;28;20036;-65
2022/11/04 05:27:31;;;;;;;9.25;6.20;;;;;;;0.66;80.60;99638.31;5069273;28;20024;-65
2022/11/04 05:29:56;;;;;;;5.47;4.90;;;;;;;0.69;81.02;99637.53;5079025;28;20031;-64
2022/11/04 05:32:22;;;;;;;7.43;5.47;;;;;;;0.65;80.61;99635.75;5070933;28;20031;-64
2022/11/04 05:34:47;;;;;;;7.90;5.60;;;;;;;0.62;80.05;99640.78;5080019;28;20036;-64
2022/11/04 05:37:13;;;;;;;8.60;5.25;;;;;;;0.70;79.70;99644.34;5069526;28;20056;-64
2022/11/04 05:39:38;;;;;;;7.72;5.43;;;;;;;0.67;79.71;99640.03;5074511;28;20221;-64
2022/11/04 05:42:04;;;;;;;7.53;5.72;;;;;;;0.74;79.20;99652.88;5070608;28;20020;-65
2022/11/04 05:44:29;;;;;;;9.25;6.15;;;;;;;0.73;79.44;99646.06;5069768;28;20107;-64
2022/11/04 05:46:55;;;;;;;8.35;6.25;;;;;;;0.73;79.80;99649.50;5068445;28;20031;-64
2022/11/04 05:49:21;;;;;;;9.32;5.95;;;;;;;0.80;79.49;99651.31;5073768;28;20103;-64
2022/11/04 05:51:46;;;;;;;7.13;5.93;;;;;;;0.77;79.96;99653.81;5072523;28;20294;-63
2022/11/04 05:54:12;;;;;;;8.63;6.30;;;;;;;0.83;79.50;99651.34;5073303;28;20098;-64
2022/11/04 05:56:38;;;;;;;7.00;6.10;;;;;;;0.87;79.87;99662.47;5065898;28;20025;-63
2022/11/04 05:59:03;;;;;;;6.63;5.45;;;;;;;0.93;79.64;99660.03;5065994;28;20259;-65
2022/11/04 06:01:37;;;;;;;8.27;5.53;;;;;;;0.83;79.39;99636.06;5075171;28;20059;-66
2022/11/04 06:04:04;;;;;;;7.70;5.85;;;;;;;0.94;79.29;99660.88;5072829;28;20020;-65
2022/11/04 06:06:33;;;;;;;9.63;5.70;;;;;;;0.97;79.23;99659.25;5062943;28;20151;-65
2022/11/04 06:08:59;;;;;;;11.95;6.10;;;;;;;0.98;79.76;99655.00;5080687;28;20054;-65
2022/11/04 06:11:26;;;;;;;11.02;6.30;;;;;;;0.95;79.75;99637.09;5070743;28;20036;-64
2022/11/04 06:13:56;;;;;;;7.75;5.78;;;;;;;1.00;79.14;99651.66;5081523;28;20053;-67
2022/11/04 06:16:23;;;;;;;6.30;5.05;;;;;;;0.97;79.32;99654.16;5072043;28;20088;-65
2022/11/04 06:18:48;;;;;;;10.05;5.97;;;;;;;1.03;79.11;99659.34;5086751;28;20324;-65
2022/11/04 06:21:14;;;;;;;8.18;6.03;;;;;;;1.06;78.78;99658.53;5086644;28;20035;-65
2022/11/04 06:23:43;;;;;;;11.88;6.20;;;;;;;1.10;79.36;99655.22;5074070;28;20088;-66
2022/11/04 06:26:10;;;;;;;14.88;6.32;;;;;;;0.96;79.22;99654.97;5085498;28;20025;-67
2022/11/04 06:28:37;;;;;;;11.07;5.95;;;;;;;1.08;79.25;99661.97;5072523;28;20059;-65
2022/11/04 06:31:05;;;;;;;9.77;6.68;;;;;;;1.01;79.53;99649.94;5070647;28;20049;-66
2022/11/04 06:33:31;;;;;;;9.25;5.97;;;;;;;1.05;79.61;99661.91;5077840;28;20040;-65
2022/11/04 06:36:03;;;;;;;8.32;6.13;;;;;;;1.08;79.01;99658.56;5066027;28;20303;-67
2022/11/04 06:38:30;;;;;;;10.68;5.65;;;;;;;1.04;79.67;99665.28;5066757;28;20108;-66
2022/11/04 06:40:56;;;;;;;11.88;5.93;;;;;;;0.99;79.86;99666.91;5082908;28;20032;-66
2022/11/04 06:43:22;;;;;;;9.50;6.35;;;;;;;1.00;80.37;99666.94;5073870;28;20037;-66
2022/11/04 06:45:54;;;;;;;11.07;6.43;;;;;;;1.05;81.07;99672.13;5066063;28;20258;-65
2022/11/04 06:48:20;;;;;;;12.13;6.68;;;;;;;0.94;79.65;99674.50;5069417;28;20032;-67
2022/11/04 06:50:46;;;;;;;11.50;6.60;;;;;;;0.88;80.46;99676.91;5087042;28;20028;-68
2022/11/04 06:53:11;;;;;;;11.98;6.80;;;;;;;0.93;79.91;99679.56;5067573;28;20198;-66
2022/11/04 06:55:37;;;;;;;12.88;8.25;;;;;;;0.90;80.82;99664.19;5075696;28;20194;-66
2022/11/04 06:58:03;;;;;;;12.65;7.03;;;;;;;1.06;80.27;99678.94;5075024;28;20055;-66
2022/11/04 07:00:28;;;;;;;12.57;7.15;;;;;;;1.06;80.92;99678.09;5081264;28;20032;-67
2022/11/04 07:02:54;;;;;;;10.65;7.07;;;;;;;1.06;80.67;99673.84;5085816;28;20021;-65
2022/11/04 07:05:19;;;;;;;10.75;6.35;;;;;;;1.00;81.06;99681.41;5066094;28;20051;-67
2022/11/04 07:07:45;;;;;;;11.75;6.80;;;;;;;1.06;80.94;99676.38;5080181;28;20059;-66
2022/11/04 07:10:11;;;;;;;10.18;6.93;;;;;;;1.02;81.15;99680.56;5078336;28;20047;-66
2022/11/04 07:12:36;;;;;;;10.77;6.20;;;;;;;1.08;80.81;99682.34;5086008;28;20167;-65
2022/11/04 07:15:03;;;;;;;10.65;7.07;;;;;;;1.07;81.00;99690.88;5085006;28;20088;-66
2022/11/04 07:17:29;;;;;;;11.10;7.03;;;;;;;1.14;81.35;99691.81;5074327;28;20032;-66
2022/11/04 07:19:54;;;;;;;12.77;6.78;;;;;;;1.22;81.41;99691.94;5085715;28;20039;-65
2022/11/04 07:22:20;;;;;;;14.75;7.72;;;;;;;1.19;80.89;99693.59;5074400;28;20028;-67
2022/11/04 07:24:46;;;;;;;13.32;7.68;;;;;;;1.21;81.18;99693.63;5077266;28;20032;-65
2022/11/04 07:27:11;;;;;;;12.07;7.45;;;;;;;1.22;81.23;99689.41;5065236;28;20214;-66
2022/11/04 07:29:37;;;;;;;13.82;8.10;;;;;;;1.07;81.87;99693.41;5065618;28;20345;-67
2022/11/04 07:32:03;;;;;;;16.27;8.18;;;;;;;1.15;81.47;99689.28;5082737;28;20029;-66
2022/11/04 07:34:29;;;;;;;16.05;8.35;;;;;;;1.07;81.26;99684.88;5072563;28;20040;-68
2022/11/04 07:36:54;;;;;;;14.30;7.65;;;;;;;1.17;81.26;99685.06;5072566;28;20032;-66
2022/11/04 07:39:20;;;;;;;13.15;8.00;;;;;;;1.27;81.30;99677.56;5067673;28;20037;-66
2022/11/04 07:41:45;;;;;;;11.90;7.95;;;;;;;1.26;80.24;99683.53;5065398;28;20221;-67
2022/11/04 07:44:11;;;;;;;11.43;7.50;;;;;;;1.33;80.45;99690.44;5083149;28;20033;-70
2022/11/04 07:46:37;;;;;;;14.15;8.30;;;;;;;1.20;81.09;99679.19;5085120;28;20031;-66
2022/11/04 07:49:03;;;;;;;12.95;8.13;;;;;;;1.21;81.09;99678.31;5076063;28;20033;-66
2022/11/04 07:51:31;;;;;;;12.68;7.03;;;;;;;1.19;80.54;99683.41;5064925;28;20036;-67
2022/11/04 07:53:57;;;;;;;12.77;7.25;;;;;;;1.34;80.91;99687.03;5065176;28;20021;-67
2022/11/04 07:56:24;;;;;;;11.10;7.45;;;;;;;1.30;81.64;99680.19;5084942;28;20031;-67
2022/11/04 07:58:50;;;;;;;13.27;7.93;;;;;;;1.35;80.76;99676.00;5069677;28;20043;-65
2022/11/04 08:01:19;;;;;;;13.10;7.72;;;;;;;1.49;80.19;99678.78;5074856;28;20323;-65
2022/11/04 08:03:45;;;;;;;14.90;8.95;;;;;;;1.34;81.01;99671.72;5078482;28;20025;-66
2022/11/04 08:06:14;;;;;;;13.35;8.10;;;;;;;1.32;80.41;99670.84;5066423;28;20029;-66
2022/11/04 08:08:42;;;;;;;11.70;8.32;;;;;;;1.35;80.05;99686.19;5085072;28;20033;-67
2022/11/04 08:11:18;;;;;;;13.35;8.07;;;;;;;1.32;79.76;99684.44;5066886;28;20024;-66
2022/11/04 08:13:45;;;;;;;13.63;8.50;;;;;;;1.17;80.50;99679.97;5078642;28;20095;-65
2022/11/04 08:16:13;;;;;;;14.30;8.60;;;;;;;1.32;80.33;99681.06;5074950;28;20025;-67
2022/11/04 08:18:40;;;;;;;12.23;8.50;;;;;;;1.25;80.89;99679.25;5083040;28;20029;-67
2022/11/04 08:21:06;;;;;;;14.07;8.07;;;;;;;1.31;80.80;99664.91;5084032;28;20024;-66
2022/11/04 08:23:33;;;;;;;15.95;9.25;;;;;;;1.27;80.36;99667.34;5074706;28;20032;-67
2022/11/04 08:25:59;;;;;;;12.90;8.32;;;;;;;1.45;81.34;99693.16;5068199;28;20028;-66
2022/11/04 08:28:25;;;;;;;10.98;8.00;;;;;;;1.41;80.70;99680.34;5064241;28;20048;-66
2022/11/04 08:30:52;;;;;;;15.07;9.00;;;;;;;1.26;80.53;99666.50;5071051;28;20032;-67
2022/11/04 08:33:17;;;;;;;16.38;9.88;;;;;;;1.40;80.36;99684.59;5082000;28;20082;-66
2022/11/04 08:35:43;;;;;;;12.88;8.60;;;;;;;1.38;79.47;99676.03;5064206;28;20044;-66
2022/11/04 08:38:09;;;;;;;12.90;8.63;;;;;;;1.46;80.20;99679.56;5081147;28;20048;-65
2022/11/04 08:40:35;;;;;;;13.45;8.95;;;;;;;1.32;79.63;99650.44;5071419;28;20029;-65
2022/11/04 08:43:01;;;;;;;14.68;8.85;;;;;;;1.54;80.16;99680.56;5077587;28;20040;-65
2022/11/04 08:45:27;;;;;;;14.15;9.20;;;;;;;1.51;80.57;99677.09;5067701;28;20025;-65
2022/11/04 08:47:52;;;;;;;17.70;9.95;;;;;;;1.44;80.08;99675.28;5084133;28;20096;-66
2022/11/04 08:50:18;;;;;;;17.17;10.13;;;;;;;1.39;80.16;99665.00;5069018;28;20041;-65
2022/11/04 08:52:44;;;;;;;15.98;9.88;;;;;;;1.41;79.89;99673.56;5099709;28;20043;-65
2022/11/04 08:55:09;;;;;;;12.82;8.95;;;;;;;1.52;80.55;99673.72;5074729;28;20225;-67
2022/11/04 08:57:35;;;;;;;13.48;9.10;;;;;;;1.28;79.39;99666.53;5080923;28;20028;-66
2022/11/04 09:00:03;;;;;;;12.80;8.88;;;;;;;1.36;79.87;99663.25;5077688;28;20095;-65
2022/11/04 09:02:29;;;;;;;14.30;9.68;;;;;;;1.45;79.92;99670.19;5064341;28;20098;-66
2022/11/04 09:04:55;;;;;;;16.92;10.57;;;;;;;1.38;79.59;99665.84;5063853;28;20037;-66
2022/11/04 09:07:20;;;;;;;16.33;9.70;;;;;;;1.35;79.86;99673.44;5074299;28;20305;-65
2022/11/04 09:09:47;;;;;;;15.48;10.52;;;;;;;1.32;80.15;99675.94;5077811;28;20031;-67
2022/11/04 09:12:12;;;;;;;18.70;12.77;;;;;;;1.31;80.82;99679.31;5062933;28;20214;-67
2022/11/04 09:14:38;;;;;;;17.05;11.50;;;;;;;1.38;80.48;99683.69;5076286;28;20021;-66
2022/11/04 09:17:04;;;;;;;16.35;11.40;;;;;;;1.28;80.35;99686.94;5082718;28;20024;-68
2022/11/04 09:19:29;;;;;;;16.10;10.85;;;;;;;1.36;80.14;99675.16;5082481;28;20074;-66
2022/11/04 09:21:55;;;;;;;17.73;11.73;;;;;;;1.44;80.49;99676.16;5075044;28;20094;-68
2022/11/04 09:24:20;;;;;;;16.52;11.65;;;;;;;1.48;81.24;99677.91;5078820;28;20040;-65
2022/11/04 09:26:46;;;;;;;15.38;11.07;;;;;;;1.46;80.96;99674.47;5063753;28;20066;-69
2022/11/04 09:29:12;;;;;;;17.92;11.82;;;;;;;1.44;80.23;99676.16;5072218;28;20060;-66
2022/11/04 09:31:37;;;;;;;16.63;11.15;;;;;;;1.57;80.19;99671.22;5075150;28;20025;-65
2022/11/04 09:34:03;;;;;;;19.05;11.98;;;;;;;1.42;80.13;99672.72;5070287;28;20028;-66
2022/11/04 09:36:29;;;;;;;16.27;11.23;;;;;;;1.60;80.55;99676.38;5073462;28;20040;-67
2022/11/04 09:38:54;;;;;;;15.05;10.65;;;;;;;1.54;80.43;99670.34;5072847;28;20056;-67
2022/11/04 09:41:30;;;;;;;21.42;13.25;;;;;;;1.45;80.55;99659.13;5073383;28;20043;-68
2022/11/04 09:44:22;;;;;;;20.00;12.98;;;;;;;1.46;80.35;99673.63;5072180;28;20092;-67
2022/11/04 09:46:48;;;;;;;;;;;;;;;1.41;80.20;99675.22;5057708;28;20337;-66
2022/11/04 09:49:15;;;;;;;21.38;13.10;;;;;;;1.28;81.10;99674.19;5069270;28;19904;-66
2022/11/04 09:51:43;;;;;;;19.42;12.85;;;;;;;1.51;80.97;99672.84;5093973;28;20025;-66
2022/11/04 09:54:22;;;;;;;21.65;13.02;;;;;;;1.46;80.62;99671.91;5071708;28;20036;-66
2022/11/04 09:56:50;;;;;;;22.30;14.18;;;;;;;1.38;80.17;99656.50;5062819;28;20032;-66
2022/11/04 09:59:23;;;;;;;20.35;13.30;;;;;;;1.47;80.29;99666.00;5061587;28;20029;-67
2022/11/04 10:01:51;;;;;;;21.15;13.60;;;;;;;1.39;80.71;99677.75;5069744;28;20077;-68
2022/11/04 10:04:17;;;;;;;23.92;13.85;;;;;;;1.49;80.86;99674.50;5067064;28;20056;-67
2022/11/04 10:06:51;;;;;;;20.27;13.57;;;;;;;1.58;81.08;99672.94;5063656;28;20085;-66
2022/11/04 10:09:44;;;;;;;23.70;14.77;;;;;;;1.68;80.53;99679.88;5062523;28;20036;-67
2022/11/04 10:12:45;;;;;;;21.17;14.57;;;;;;;1.73;80.03;99676.56;5069268;28;20052;-66
2022/11/04 10:15:28;;;;;;;26.10;13.77;;;;;;;1.69;80.26;99686.72;5080878;28;20144;-69
2022/11/04 10:18:22;;;;;;;25.58;15.15;;;;;;;1.54;80.06;99672.91;5054666;28;20037;-67
2022/11/04 10:21:05;;;;;;;21.85;13.90;;;;;;;1.66;81.10;99677.31;5062618;28;20029;-67
2022/11/04 10:24:02;;;;;;;24.83;14.10;;;;;;;1.61;80.36;99678.09;5071822;28;20029;-67
2022/11/04 10:26:37;;;;;;;21.20;13.82;;;;;;;1.68;80.31;99674.78;5063608;28;20024;-67
2022/11/04 10:29:10;;;;;;;22.27;14.57;;;;;;;1.82;80.38;99682.66;5067021;28;20039;-66
2022/11/04 10:31:37;;;;;;;24.90;14.68;;;;;;;1.78;80.09;99671.53;5073055;28;20224;-66
2022/11/04 10:34:07;;;;;;;22.65;14.25;;;;;;;1.67;79.88;99647.56;5081139;28;20021;-66
2022/11/04 10:36:35;;;;;;;23.92;13.88;;;;;;;1.92;79.46;99670.88;5070779;28;20069;-66
2022/11/04 10:39:12;;;;;;;23.05;14.15;;;;;;;1.88;79.90;99655.50;5081666;28;20045;-66
2022/11/04 10:41:39;;;;;;;20.30;13.27;;;;;;;1.95;78.71;99650.47;5062213;28;20373;-65
2022/11/04 10:44:12;;;;;;;22.05;12.85;;;;;;;1.88;77.80;99654.63;5067942;28;20108;-67
2022/11/04 10:46:52;;;;;;;19.80;12.80;;;;;;;2.07;78.27;99671.06;5082092;28;20028;-66
2022/11/04 10:49:38;;;;;;;19.35;13.27;;;;;;;2.00;78.51;99654.81;5082305;28;20309;-68
2022/11/04 10:52:05;;;;;;;19.40;12.35;;;;;;;2.00;77.91;99653.94;5078260;28;20032;-67
2022/11/04 10:54:41;;;;;;;23.55;13.50;;;;;;;1.95;77.27;99640.25;5078466;28;20037;-67
2022/11/04 10:57:07;;;;;;;21.27;12.90;;;;;;;2.00;78.04;99664.16;5069016;28;20029;-66
2022/11/04 10:59:45;;;;;;;21.00;12.85;;;;;;;2.09;78.14;99659.16;5079870;28;20088;-67
2022/11/04 11:02:10;;;;;;;19.25;12.07;;;;;;;2.21;78.10;99661.88;5065273;28;20037;-67
2022/11/04 11:04:39;;;;;;;19.48;12.93;;;;;;;2.18;78.00;99664.41;5066060;28;20315;-66
2022/11/04 11:07:08;;;;;;;18.10;11.65;;;;;;;2.11;77.28;99672.84;5050861;28;20288;-66
2022/11/04 11:09:39;;;;;;;20.20;12.63;;;;;;;2.02;77.86;99676.13;5069238;28;20025;-67
2022/11/04 11:12:19;;;;;;;18.52;12.38;;;;;;;2.10;78.49;99675.38;5075965;28;20037;-66
2022/11/04 11:14:46;;;;;;;19.20;11.57;;;;;;;1.99;77.88;99677.78;5074786;28;20045;-65
2022/11/04 11:17:31;;;;;;;21.40;12.55;;;;;;;1.91;78.34;99657.25;5082569;28;20221;-66
2022/11/04 11:20:04;;;;;;;20.08;12.13;;;;;;;2.01;78.40;99678.63;5068357;28;20037;-65
2022/11/04 11:22:32;;;;;;;21.00;12.68;;;;;;;2.02;77.98;99681.22;5082738;28;20104;-64
2022/11/04 11:25:22;;;;;;;19.08;12.32;;;;;;;2.11;78.87;99679.63;5068585;28;20048;-64
2022/11/04 11:28:04;;;;;;;20.50;12.10;;;;;;;2.01;78.87;99655.66;5084571;28;20024;-66
2022/11/04 11:30:35;;;;;;;18.98;12.48;;;;;;;2.18;78.19;99677.16;5083304;28;20055;-66
2022/11/04 11:33:13;;;;;;;18.42;11.82;;;;;;;2.10;78.54;99683.88;5065288;28;20037;-67
2022/11/04 11:35:50;;;;;;;22.15;13.25;;;;;;;2.02;77.97;99670.13;5071171;28;20037;-66
2022/11/04 11:38:27;;;;;;;18.17;12.00;;;;;;;2.00;78.20;99669.28;5082242;28;20118;-65
2022/11/04 11:41:07;;;;;;;20.60;11.82;;;;;;;2.05;77.89;99678.72;5072770;28;20052;-67
2022/11/04 11:43:35;;;;;;;22.48;13.35;;;;;;;2.09;78.55;99671.09;5067137;28;20400;-66
2022/11/04 11:46:02;;;;;;;23.63;13.07;;;;;;;2.15;78.16;99689.03;5078766;28;20036;-65
2022/11/04 11:48:50;;;;;;;18.08;11.43;;;;;;;2.11;78.02;99688.16;5078427;28;20031;-65
2022/11/04 11:51:42;;;;;;;20.20;12.45;;;;;;;2.16;78.03;99691.59;5081235;28;20028;-65
2022/11/04 11:54:32;;;;;;;17.80;12.05;;;;;;;1.95;78.40;99674.31;5065870;28;20045;-65
2022/11/04 11:57:22;;;;;;;21.02;12.65;;;;;;;2.05;78.73;99688.06;5070940;28;20063;-67
2022/11/04 11:59:52;;;;;;;19.88;12.27;;;;;;;2.05;79.01;99693.16;5075320;28;20032;-66
2022/11/04 12:02:23;;;;;;;18.42;12.00;;;;;;;2.06;78.43;99702.56;5075365;28;20044;-67
2022/11/04 12:04:50;;;;;;;22.33;12.95;;;;;;;2.12;78.21;99702.63;5072805;28;20054;-65
2022/11/04 12:07:42;;;;;;;21.05;12.05;;;;;;;2.18;78.43;99701.84;5072489;28;20233;-65
2022/11/04 12:10:41;;;;;;;17.10;11.00;;;;;;;2.12;78.78;99700.06;5070986;28;20017;-66
2022/11/04 12:13:22;;;;;;;23.85;14.48;;;;;;;2.08;78.30;99698.31;5074921;28;20063;-65
2022/11/04 12:15:57;;;;;;;23.40;12.83;;;;;;;1.99;78.33;99706.72;5074412;28;20099;-67
2022/11/04 12:18:50;;;;;;;19.27;11.43;;;;;;;2.10;78.56;99704.31;5065645;28;20025;-65